Hartford, Connecticut
Traffic Map
Current Weather Conditions
Hartford, Connecticut
Overcast
Overcast
27°
Feels Like: 28°
Wind Chill: 27° Ceiling: 3700
Heat Index: 28° Visibility: 10mi
Dew Point: 19° Wind: 9mph
Humidity: 64% Direction: 210° (SSW)
Pressure: 29.46in Gusts: 0mph
Raw Report DataKHFD 281953Z 21008KT 10SM BKN037 BKN049 OVC060 27/19 A2946 RMK AO2 LTG DSNT NE AND SW RAB15E51 SLP976 P0001 T02670194
Traffic Incident Summary
Active as of:
Severity:
Category:
InformationThere was an issue retrieving the traffic information for this location. Please try a different location or try again shortly.
Advertisements
Track Severe Weather on mobile